TimeEST,TemperatureF,Dew PointF,Humidity,Sea Level PressureIn,VisibilityMPH,Wind Direction,Wind SpeedMPH,Gust SpeedMPH,PrecipitationIn,Events,Conditions,WindDirDegrees,DateUTC
12:54 AM,30.0,26.1,85,30.52,10.0,West,3.5,-,N/A,,Clear,280,2012-11-17 05:54:00
1:54 AM,30.0,27.0,88,30.53,10.0,West,4.6,-,N/A,,Clear,280,2012-11-17 06:54:00
2:54 AM,28.0,25.0,88,30.54,10.0,WNW,3.5,-,N/A,,Clear,300,2012-11-17 07:54:00
3:54 AM,28.0,25.0,88,30.56,10.0,NW,4.6,-,N/A,,Clear,310,2012-11-17 08:54:00
4:54 AM,28.0,25.0,88,30.58,10.0,WNW,3.5,-,N/A,,Clear,300,2012-11-17 09:54:00
5:54 AM,28.0,25.0,88,30.59,10.0,Calm,Calm,-,N/A,,Clear,0,2012-11-17 10:54:00
6:54 AM,27.0,24.1,89,30.62,8.0,Calm,Calm,-,N/A,,Clear,0,2012-11-17 11:54:00
7:54 AM,30.0,26.1,85,30.64,8.0,Calm,Calm,-,N/A,,Clear,0,2012-11-17 12:54:00
8:54 AM,32.0,28.0,85,30.65,10.0,WSW,3.5,-,N/A,,Clear,240,2012-11-17 13:54:00
9:54 AM,36.0,30.0,79,30.66,10.0,West,4.6,-,N/A,,Clear,260,2012-11-17 14:54:00
10:54 AM,43.0,32.0,65,30.65,10.0,WSW,4.6,-,N/A,,Clear,240,2012-11-17 15:54:00
11:54 AM,46.0,30.9,56,30.63,10.0,WSW,3.5,-,N/A,,Clear,250,2012-11-17 16:54:00
12:54 PM,48.9,30.9,50,30.61,10.0,Calm,Calm,-,N/A,,Clear,0,2012-11-17 17:54:00
1:54 PM,51.1,30.9,46,30.59,10.0,Calm,Calm,-,N/A,,Clear,0,2012-11-17 18:54:00
2:54 PM,52.0,30.9,45,30.58,10.0,Calm,Calm,-,N/A,,Clear,0,2012-11-17 19:54:00
3:54 PM,50.0,33.1,52,30.58,10.0,SW,4.6,-,N/A,,Clear,220,2012-11-17 20:54:00
4:54 PM,43.0,33.1,68,30.58,10.0,Calm,Calm,-,N/A,,Clear,0,2012-11-17 21:54:00
5:54 PM,41.0,32.0,70,30.61,10.0,Calm,Calm,-,N/A,,Clear,0,2012-11-17 22:54:00
6:54 PM,37.0,32.0,82,30.62,10.0,Calm,Calm,-,N/A,,Clear,0,2012-11-17 23:54:00
7:54 PM,34.0,30.9,89,30.63,10.0,Calm,Calm,-,N/A,,Clear,0,2012-11-18 00:54:00
8:54 PM,33.1,30.0,89,30.64,10.0,NW,3.5,-,N/A,,Clear,320,2012-11-18 01:54:00
9:54 PM,30.9,28.0,89,30.63,10.0,West,4.6,-,N/A,,Clear,280,2012-11-18 02:54:00
10:54 PM,32.0,28.9,88,30.63,8.0,NW,3.5,-,N/A,,Clear,320,2012-11-18 03:54:00
11:54 PM,30.9,28.9,92,30.64,8.0,Calm,Calm,-,N/A,,Clear,0,2012-11-18 04:54:00